Alger, MI

8:23 AM EST on January 16, 2017 (GMT -0500)
Cole Canoe Base | | Change Station
Active Advisory: Winter Weather Advisory

Elev 807 ft 44.18 °N, 84.07 °W | Updated 25 seconds ago

Mostly Cloudy
Mostly Cloudy
13.3 °F
Feels Like 13 °F
N
0.0
Wind Variable Wind from WNW

Today
High -- | Low -- °F
--% Chance of Precip.
Yesterday
High -- | Low -- °F
Precip. -- in
Pressure 30.33 in
Visibility 7.0 miles
Clouds Clear
Windchill 13 °F
Dew Point 12 °F
Humidity 93%
Rainfall 0.00 in
Snow Depth Not available.
8:07 AM 5:25 PM
Waning Gibbous, 81% visible
METAR KHTL 161253Z AUTO 00000KT 7SM CLR M14/M17 A3026 RMK AO2 SLP271 T11441167
Pressure 30.33 in
Visibility 7.0 miles
Clouds Clear
Windchill 13 °F
Dew Point 12 °F
Humidity 93%
Rainfall 0.00 in
Snow Depth Not available.
8:07 AM 5:25 PM
Waning Gibbous, 81% visible
METAR KHTL 161253Z AUTO 00000KT 7SM CLR M14/M17 A3026 RMK AO2 SLP271 T11441167

Get Your Daily Forecast Email!

Thanks for signing up!

Be on the lookout for a verification email in your inbox.

You'll start receiving the daily forecast at 8 AM.

×

10-Day Weather Forecast

Almanac

Astronomy

Jan. 16, 2017 Rise Set
Actual Time
Civil Twilight
Nautical Twilight
Astronomical Twilight
Moon
Length of Visible Light
Length of Day
Tomorrow will be .
, % of the Moon is Illuminated

Today's Extremes

State Highs State Lows

Community

WunderPhotos

Upload Photos

1,962,540 photos uploaded!

WunderBlog® & News

Nearby

Air Quality

  Air Quality AQ Index Pollutant
Not available.

Snow Depth

Station Depth Elevation

Earthquake Activity

City Distance Mag. Time & Date
Minimum magnitude displayed is 2.5.

Coastal Water Temperatures

Place Temperature

Stations

Nearby Weather Stations

Station Location Temp. Windchill Dew Point Humidity Wind Precip. Elev Updated Type
                   

Watches & Warnings

Winter Weather Advisory
Issued: 3:52 AM EST Jan. 16, 2017 – National Weather Service

... Winter Weather Advisory in effect from 7 PM this evening to
noon EST Tuesday...

The National Weather Service in Gaylord has issued a Winter
Weather Advisory for mixed winter precipitation... which is in
effect from 7 PM this evening to noon EST Tuesday.

* A wintry mix of precipitation is expected tonight. Initially,
snow will spread into the region this evening. Snow will
eventually transition to a period of sleet and freezing rain
later this evening and overnight, becoming all rain by around
midday Tuesday.

* Total wet snow accumulations of up to 1 inch and ice
accumulations of one to two tenths of an inch are expected.

* The light snow and ice will result in hazardous travel
conditions... including during the morning commute on Tuesday.

Precautionary/preparedness actions...

A Winter Weather Advisory means that periods of snow... sleet or
freezing rain will cause travel difficulties. Be prepared for
slippery roads... and use caution while driving. For the latest
Road conditions... go to the mdot website at Michigan.Gov.

Adam